createdAt,value
2018-04-22T00:01:57.799Z,4.80
2018-04-22T00:04:24.365Z,4.63
2018-04-22T00:06:50.929Z,5.07
2018-04-22T00:09:17.673Z,4.63
2018-04-22T00:11:44.409Z,4.03
2018-04-22T00:14:12.221Z,4.53
2018-04-22T00:16:38.825Z,4.83
2018-04-22T00:19:05.521Z,4.47
2018-04-22T00:21:32.082Z,3.97
2018-04-22T00:24:01.785Z,4.50
2018-04-22T00:26:28.257Z,5.00
2018-04-22T00:28:54.933Z,5.47
2018-04-22T00:31:22.116Z,4.57
2018-04-22T00:33:52.461Z,4.60
2018-04-22T00:36:19.153Z,5.03
2018-04-22T00:38:45.781Z,4.70
2018-04-22T00:41:12.311Z,5.30
2018-04-22T00:43:40.165Z,4.73
2018-04-22T00:46:06.833Z,4.53
2018-04-22T00:48:33.386Z,4.73
2018-04-22T00:51:00.071Z,4.93
2018-04-22T00:53:30.546Z,4.83
2018-04-22T00:55:57.160Z,4.80
2018-04-22T00:58:23.793Z,4.57
2018-04-22T01:00:50.377Z,5.03
2018-04-22T01:03:17.108Z,4.60
2018-04-22T01:05:43.813Z,4.43
2018-04-22T01:08:10.376Z,5.03
2018-04-22T01:10:37.001Z,4.97
2018-04-22T01:13:07.649Z,4.77
2018-04-22T01:15:34.567Z,4.83
2018-04-22T01:18:01.290Z,4.93
2018-04-22T01:20:27.972Z,4.73
2018-04-22T01:23:00.838Z,5.00
2018-04-22T01:25:27.495Z,4.90
2018-04-22T01:27:54.200Z,4.83
2018-04-22T01:30:20.774Z,4.30
2018-04-22T01:32:58.270Z,4.27
2018-04-22T01:35:24.854Z,4.73
2018-04-22T01:37:51.366Z,4.40
2018-04-22T01:40:17.964Z,4.63
2018-04-22T01:42:44.869Z,4.40
2018-04-22T01:45:11.470Z,3.90
2018-04-22T01:47:38.073Z,4.27
2018-04-22T01:50:04.593Z,4.10
2018-04-22T01:52:35.205Z,4.73
2018-04-22T01:55:01.834Z,4.57
2018-04-22T01:57:28.397Z,4.07
2018-04-22T01:59:55.083Z,4.07
2018-04-22T02:02:25.483Z,4.73
2018-04-22T02:04:52.041Z,3.80
2018-04-22T02:07:18.750Z,4.17
2018-04-22T02:09:45.421Z,3.70
2018-04-22T02:12:15.501Z,3.70
2018-04-22T02:14:42.140Z,3.47
2018-04-22T02:17:08.654Z,3.70
2018-04-22T02:19:35.260Z,3.63
2018-04-22T02:22:06.714Z,3.87
2018-04-22T02:24:33.361Z,3.60
2018-04-22T02:27:00.486Z,3.87
2018-04-22T02:29:27.089Z,3.80
2018-04-22T02:31:54.020Z,3.90
2018-04-22T02:34:20.553Z,4.03
2018-04-22T02:36:47.179Z,3.80
2018-04-22T02:39:13.593Z,4.00
2018-04-22T02:41:41.209Z,4.20
2018-04-22T02:44:07.887Z,4.00
2018-04-22T02:46:34.483Z,4.07
2018-04-22T02:49:01.187Z,4.03
2018-04-22T02:51:31.403Z,5.17
2018-04-22T02:53:58.074Z,4.40
2018-04-22T02:56:24.717Z,4.07
2018-04-22T02:58:51.320Z,3.80
2018-04-22T03:01:17.977Z,3.60
2018-04-22T03:03:48.661Z,3.90
2018-04-22T03:06:15.285Z,4.33
2018-04-22T03:08:41.955Z,4.33
2018-04-22T03:11:08.662Z,3.57
2018-04-22T03:13:36.432Z,4.47
2018-04-22T03:16:03.657Z,3.93
2018-04-22T03:18:30.362Z,3.90
2018-04-22T03:20:57.013Z,4.00
2018-04-22T03:23:24.743Z,4.07
2018-04-22T03:25:51.383Z,3.73
2018-04-22T03:28:18.007Z,3.63
2018-04-22T03:30:44.750Z,4.07
2018-04-22T03:33:11.419Z,4.07
2018-04-22T03:35:37.921Z,4.00
2018-04-22T03:38:04.587Z,4.20
2018-04-22T03:40:31.280Z,4.30
2018-04-22T03:43:01.856Z,4.33
2018-04-22T03:45:28.397Z,4.60
2018-04-22T03:47:55.073Z,4.27
2018-04-22T03:50:21.682Z,4.20
2018-04-22T03:52:49.364Z,4.93
2018-04-22T03:55:16.042Z,4.10
2018-04-22T03:57:42.780Z,3.60
2018-04-22T04:00:09.445Z,3.47
2018-04-22T04:02:36.128Z,4.47
2018-04-22T04:05:02.740Z,3.80
2018-04-22T04:07:29.478Z,3.47
2018-04-22T04:09:56.085Z,3.77
2018-04-22T04:12:23.826Z,4.60
2018-04-22T04:14:50.464Z,4.80
2018-04-22T04:17:17.130Z,5.10
2018-04-22T04:19:55.788Z,4.87
2018-04-22T04:22:39.261Z,5.33
2018-04-22T04:28:03.086Z,5.30
2018-04-22T04:30:29.716Z,5.33
2018-04-22T04:33:10.072Z,5.97
2018-04-22T04:35:36.818Z,6.37
2018-04-22T04:38:03.365Z,6.00
2018-04-22T04:40:29.974Z,7.63
2018-04-22T04:43:03.529Z,6.83
2018-04-22T04:45:30.311Z,6.53
2018-04-22T04:47:56.967Z,6.60
2018-04-22T04:50:23.550Z,6.43
2018-04-22T04:52:54.949Z,6.13
2018-04-22T04:55:21.651Z,6.43
2018-04-22T04:57:48.363Z,6.20
2018-04-22T05:00:15.131Z,5.83
2018-04-22T05:02:45.524Z,5.87
2018-04-22T05:05:12.189Z,6.20
2018-04-22T05:07:38.913Z,6.40
2018-04-22T05:10:05.705Z,6.97
2018-04-22T05:12:35.582Z,7.27
2018-04-22T05:15:02.318Z,6.47
2018-04-22T05:17:28.961Z,6.23
2018-04-22T05:19:55.681Z,5.60
2018-04-22T05:22:25.723Z,6.63
2018-04-22T05:24:52.458Z,7.07
2018-04-22T05:27:19.573Z,7.40
2018-04-22T05:29:46.225Z,7.10
2018-04-22T05:32:16.293Z,6.70
2018-04-22T05:34:42.927Z,6.37
2018-04-22T05:37:09.640Z,5.40
2018-04-22T05:39:36.384Z,6.17
2018-04-22T05:42:06.370Z,10.60
2018-04-22T05:44:33.041Z,8.50
2018-04-22T05:46:59.706Z,7.17
2018-04-22T05:49:26.441Z,6.80
2018-04-22T05:51:59.246Z,6.00
2018-04-22T05:54:25.889Z,5.03
2018-04-22T05:56:52.470Z,5.83
2018-04-22T05:59:19.221Z,5.37
2018-04-22T06:01:50.944Z,4.90
2018-04-22T06:04:17.592Z,4.67
2018-04-22T06:06:44.305Z,4.27
2018-04-22T06:09:10.974Z,4.13
2018-04-22T06:11:38.848Z,3.83
2018-04-22T06:14:05.547Z,4.17
2018-04-22T06:16:32.285Z,3.80
2018-04-22T06:18:58.853Z,3.67
2018-04-22T06:21:27.133Z,3.27
2018-04-22T06:23:53.918Z,2.93
2018-04-22T06:26:20.618Z,2.90
2018-04-22T06:28:47.338Z,3.60
2018-04-22T06:31:14.185Z,2.90
2018-04-22T06:33:40.979Z,3.13
2018-04-22T06:36:07.584Z,2.73
2018-04-22T06:38:34.746Z,2.93
2018-04-22T06:41:01.479Z,2.33
2018-04-22T06:43:28.137Z,2.33
2018-04-22T06:45:55.791Z,2.40
2018-04-22T06:48:22.361Z,3.27
2018-04-22T06:50:49.018Z,2.67
2018-04-22T06:53:15.706Z,2.30
2018-04-22T06:55:42.413Z,2.70
2018-04-22T06:58:09.022Z,2.50
2018-04-22T07:00:35.683Z,2.50
2018-04-22T07:03:03.508Z,2.70
2018-04-22T07:05:30.251Z,2.93
2018-04-22T07:07:56.850Z,2.37
2018-04-22T07:10:23.274Z,2.40
2018-04-22T07:12:53.156Z,2.23
2018-04-22T07:15:19.757Z,2.60
2018-04-22T07:17:46.381Z,2.23
2018-04-22T07:20:13.149Z,2.33
2018-04-22T07:22:41.108Z,2.53
2018-04-22T07:25:07.854Z,2.73
2018-04-22T07:27:34.449Z,2.90
2018-04-22T07:30:01.086Z,2.40
2018-04-22T07:32:37.574Z,2.37
2018-04-22T07:35:04.220Z,2.43
2018-04-22T07:37:30.853Z,2.40
2018-04-22T07:39:57.425Z,2.50
2018-04-22T07:42:25.153Z,2.53
2018-04-22T07:44:51.607Z,2.40
2018-04-22T07:47:18.330Z,2.40
2018-04-22T07:49:44.948Z,2.70
2018-04-22T07:52:15.400Z,2.90
2018-04-22T07:54:42.117Z,2.53
2018-04-22T07:57:08.801Z,2.53
2018-04-22T07:59:35.481Z,3.30
2018-04-22T08:02:06.326Z,2.40
2018-04-22T08:04:32.982Z,2.87
2018-04-22T08:06:59.664Z,2.70
2018-04-22T08:09:26.337Z,2.50
2018-04-22T08:11:54.120Z,2.37
2018-04-22T08:14:20.761Z,2.30
2018-04-22T08:16:47.405Z,2.80
2018-04-22T08:19:14.008Z,2.50
2018-04-22T08:21:40.915Z,2.83
2018-04-22T08:24:07.536Z,2.60
2018-04-22T08:26:34.280Z,2.40
2018-04-22T08:29:01.016Z,2.83
2018-04-22T08:31:27.657Z,3.00
2018-04-22T08:33:54.311Z,3.17
2018-04-22T08:36:20.826Z,3.03
2018-04-22T08:38:47.707Z,3.73
2018-04-22T08:41:17.719Z,3.70
2018-04-22T08:43:44.347Z,3.30
2018-04-22T08:46:11.029Z,3.40
2018-04-22T08:48:37.780Z,3.60
2018-04-22T08:51:07.610Z,4.07
2018-04-22T08:53:34.241Z,3.97
2018-04-22T08:56:00.884Z,4.00
2018-04-22T08:58:27.450Z,3.50
2018-04-22T09:00:57.909Z,3.47
2018-04-22T09:03:24.645Z,4.03
2018-04-22T09:05:51.259Z,4.30
2018-04-22T09:08:17.959Z,4.23
2018-04-22T09:10:48.734Z,3.40
2018-04-22T09:13:15.386Z,4.30
2018-04-22T09:15:42.122Z,3.40
2018-04-22T09:18:08.880Z,3.70
2018-04-22T09:20:36.507Z,3.67
2018-04-22T09:23:03.074Z,4.13
2018-04-22T09:25:29.671Z,3.20
2018-04-22T09:27:56.280Z,3.50
2018-04-22T09:30:22.707Z,3.87
2018-04-22T09:32:49.429Z,3.57
2018-04-22T09:35:16.013Z,3.53
2018-04-22T09:37:42.713Z,3.60
2018-04-22T09:40:09.447Z,3.57
2018-04-22T09:42:40.045Z,3.70
2018-04-22T09:45:06.742Z,3.57
2018-04-22T09:47:33.509Z,4.60
2018-04-22T09:50:00.114Z,3.80
2018-04-22T09:52:27.746Z,4.40
2018-04-22T09:54:54.306Z,3.37
2018-04-22T09:57:20.964Z,3.53
2018-04-22T09:59:47.697Z,3.83
2018-04-22T10:02:24.224Z,4.13
2018-04-22T10:04:51.010Z,3.67
2018-04-22T10:07:17.609Z,3.60
2018-04-22T10:09:44.241Z,3.70
2018-04-22T10:12:16.114Z,3.80
2018-04-22T10:14:42.618Z,3.50
2018-04-22T10:17:09.322Z,3.60
2018-04-22T10:19:35.953Z,3.47
2018-04-22T10:22:16.983Z,4.60
2018-04-22T10:24:43.629Z,3.80
2018-04-22T10:27:10.239Z,3.87
2018-04-22T10:29:36.953Z,4.20
2018-04-22T10:32:07.822Z,3.33
2018-04-22T10:34:34.599Z,3.83
2018-04-22T10:37:01.238Z,3.37
2018-04-22T10:39:27.962Z,3.22
2018-04-22T10:41:58.002Z,3.78
2018-04-22T10:44:24.616Z,3.80
2018-04-22T10:46:51.291Z,3.37
2018-04-22T10:49:18.036Z,4.10
2018-04-22T10:51:57.726Z,3.37
2018-04-22T10:54:24.467Z,3.45
2018-04-22T10:56:51.154Z,3.75
2018-04-22T10:59:17.913Z,3.53
2018-04-22T11:01:45.520Z,3.45
2018-04-22T11:04:12.110Z,3.47
2018-04-22T11:06:38.731Z,4.47
2018-04-22T11:09:05.302Z,4.18
2018-04-22T11:11:35.954Z,3.37
2018-04-22T11:14:02.601Z,3.40
2018-04-22T11:16:29.286Z,3.60
2018-04-22T11:18:55.995Z,3.45
2018-04-22T11:21:26.719Z,4.15
2018-04-22T11:23:53.400Z,3.70
2018-04-22T11:26:20.078Z,3.85
2018-04-22T11:28:46.711Z,3.53
2018-04-22T11:31:20.146Z,3.70
2018-04-22T11:33:46.878Z,4.60
2018-04-22T11:36:13.464Z,4.40
2018-04-22T11:38:40.060Z,3.58
2018-04-22T11:41:11.146Z,3.78
2018-04-22T11:43:37.694Z,4.07
2018-04-22T11:46:04.294Z,3.60
2018-04-22T11:48:30.929Z,3.87
2018-04-22T11:51:01.617Z,3.53
2018-04-22T11:53:28.239Z,3.65
2018-04-22T11:55:54.928Z,4.03
2018-04-22T11:58:21.572Z,4.15
2018-04-22T12:00:51.682Z,5.22
2018-04-22T12:03:18.166Z,4.37
2018-04-22T12:05:44.740Z,4.37
2018-04-22T12:08:11.362Z,4.78
2018-04-22T12:10:51.886Z,3.97
2018-04-22T12:13:18.960Z,4.15
2018-04-22T12:15:45.572Z,4.18
2018-04-22T12:18:12.219Z,3.83
2018-04-22T12:20:42.252Z,3.92
2018-04-22T12:23:08.884Z,3.80
2018-04-22T12:25:35.532Z,3.95
2018-04-22T12:28:02.149Z,3.60
2018-04-22T12:30:30.092Z,4.12
2018-04-22T12:32:56.713Z,3.70
2018-04-22T12:35:23.297Z,3.45
2018-04-22T12:37:49.951Z,3.65
2018-04-22T12:40:20.318Z,3.95
2018-04-22T12:42:47.059Z,3.80
2018-04-22T12:45:13.761Z,4.10
2018-04-22T12:47:40.525Z,3.78
2018-04-22T12:50:07.112Z,4.20
2018-04-22T12:52:33.766Z,3.90
2018-04-22T12:55:00.532Z,3.30
2018-04-22T12:57:27.239Z,3.37
2018-04-22T12:59:53.948Z,3.30
2018-04-22T13:02:20.567Z,3.83
2018-04-22T13:04:47.214Z,3.53
2018-04-22T13:07:13.875Z,3.73
2018-04-22T13:09:40.568Z,3.60
2018-04-22T13:12:07.251Z,3.33
2018-04-22T13:14:34.158Z,3.20
2018-04-22T13:17:01.023Z,3.10
2018-04-22T13:19:27.650Z,3.30
2018-04-22T13:21:54.490Z,3.40
2018-04-22T13:24:21.240Z,3.60
2018-04-22T13:26:47.942Z,3.20
2018-04-22T13:29:14.721Z,3.73
2018-04-22T13:31:41.523Z,3.83
2018-04-22T13:34:08.251Z,3.77
2018-04-22T13:36:34.960Z,3.73
2018-04-22T13:39:02.124Z,4.70
2018-04-22T13:41:35.169Z,3.77
2018-04-22T13:44:01.901Z,3.43
2018-04-22T13:46:28.646Z,4.10
2018-04-22T13:48:55.374Z,3.50
2018-04-22T13:51:23.031Z,3.00
2018-04-22T13:53:49.694Z,3.30
2018-04-22T13:56:16.320Z,3.67
2018-04-22T13:58:43.545Z,3.20
2018-04-22T14:01:35.328Z,3.67
2018-04-22T14:04:01.902Z,3.90
2018-04-22T14:06:28.602Z,3.87
2018-04-22T14:08:55.315Z,3.30
2018-04-22T14:11:25.394Z,3.50
2018-04-22T14:13:52.025Z,3.97
2018-04-22T14:16:18.733Z,3.63
2018-04-22T14:18:45.242Z,4.03
2018-04-22T14:21:16.589Z,4.33
2018-04-22T14:23:43.293Z,3.93
2018-04-22T14:26:09.983Z,4.20
2018-04-22T14:28:36.609Z,3.63
2018-04-22T14:31:04.216Z,3.50
2018-04-22T14:33:30.844Z,4.23
2018-04-22T14:35:57.398Z,3.43
2018-04-22T14:38:23.989Z,4.00
2018-04-22T14:40:56.178Z,3.60
2018-04-22T14:43:22.900Z,3.83
2018-04-22T14:46:01.937Z,4.33
2018-04-22T14:48:28.514Z,3.90
2018-04-22T14:50:56.286Z,3.77
2018-04-22T14:53:22.847Z,3.73
2018-04-22T14:55:49.538Z,3.77
2018-04-22T14:58:16.098Z,3.60
2018-04-22T15:00:48.314Z,3.47
2018-04-22T15:03:15.053Z,3.60
2018-04-22T15:05:41.678Z,4.13
2018-04-22T15:08:08.382Z,3.90
2018-04-22T15:10:38.165Z,4.30
2018-04-22T15:13:04.854Z,4.03
2018-04-22T15:15:31.357Z,8.30
2018-04-22T15:17:57.993Z,6.30
2018-04-22T15:20:28.617Z,3.40
2018-04-22T15:22:55.362Z,3.43
2018-04-22T15:25:22.030Z,3.50
2018-04-22T15:27:48.511Z,5.23
2018-04-22T15:30:21.356Z,4.60
2018-04-22T15:32:48.041Z,5.07
2018-04-22T15:35:14.757Z,4.70
2018-04-22T15:37:41.447Z,3.77
2018-04-22T15:40:12.036Z,4.33
2018-04-22T15:42:38.773Z,3.80
2018-04-22T15:45:05.389Z,5.23
2018-04-22T15:47:32.000Z,3.57
2018-04-22T15:50:01.583Z,3.37
2018-04-22T15:52:28.244Z,5.17
2018-04-22T15:54:54.857Z,4.10
2018-04-22T15:57:21.635Z,4.30
2018-04-22T15:59:48.379Z,5.20
2018-04-22T16:02:15.014Z,6.40
2018-04-22T16:04:41.687Z,5.33
2018-04-22T16:07:08.330Z,5.07
2018-04-22T16:09:35.073Z,4.00
2018-04-22T16:12:01.680Z,4.53
2018-04-22T16:14:28.365Z,5.03
2018-04-22T16:16:55.866Z,5.03
2018-04-22T16:19:22.574Z,3.90
2018-04-22T16:21:49.147Z,3.70
2018-04-22T16:24:15.629Z,4.70
2018-04-22T16:26:42.406Z,5.30
2018-04-22T16:29:09.823Z,4.50
2018-04-22T16:31:37.671Z,4.97
2018-04-22T16:34:04.377Z,4.57
2018-04-22T16:36:30.920Z,4.53
2018-04-22T16:38:57.595Z,5.03
2018-04-22T16:41:30.212Z,4.67
2018-04-22T16:43:57.002Z,4.37
2018-04-22T16:46:23.668Z,4.83
2018-04-22T16:48:50.391Z,4.40
2018-04-22T16:51:18.246Z,7.30
2018-04-22T16:53:44.883Z,4.80
2018-04-22T16:56:11.900Z,4.73
2018-04-22T16:58:38.455Z,4.50
2018-04-22T17:01:06.367Z,9.47
2018-04-22T17:03:33.041Z,4.53
2018-04-22T17:05:59.801Z,4.87
2018-04-22T17:08:26.555Z,4.10
2018-04-22T17:10:57.686Z,4.40
2018-04-22T17:13:24.334Z,4.17
2018-04-22T17:15:51.042Z,4.63
2018-04-22T17:18:17.745Z,5.70
2018-04-22T17:20:48.066Z,7.17
2018-04-22T17:23:14.794Z,8.17
2018-04-22T17:25:41.509Z,8.30
2018-04-22T17:28:08.220Z,7.77
2018-04-22T17:30:36.043Z,7.53
2018-04-22T17:33:02.629Z,6.43
2018-04-22T17:35:29.750Z,6.40
2018-04-22T17:37:56.291Z,6.70
2018-04-22T17:40:40.492Z,5.37
2018-04-22T17:43:07.090Z,5.13
2018-04-22T17:45:33.746Z,5.47
2018-04-22T17:48:00.455Z,5.80
2018-04-22T17:50:32.163Z,5.70
2018-04-22T17:52:59.416Z,5.50
2018-04-22T17:55:26.556Z,6.40
2018-04-22T17:57:53.194Z,5.57
2018-04-22T18:00:24.610Z,5.33
2018-04-22T18:02:51.318Z,5.70
2018-04-22T18:05:18.765Z,5.07
2018-04-22T18:07:45.467Z,5.30
2018-04-22T18:10:15.150Z,6.23
2018-04-22T18:12:41.891Z,5.87
2018-04-22T18:15:08.699Z,5.00
2018-04-22T18:17:36.186Z,5.10
2018-04-22T18:20:08.136Z,5.83
2018-04-22T18:22:34.711Z,7.80
2018-04-22T18:25:01.354Z,5.50
2018-04-22T18:27:28.089Z,6.80
2018-04-22T18:29:58.905Z,5.20
2018-04-22T18:32:25.570Z,5.00
2018-04-22T18:34:52.268Z,4.80
2018-04-22T18:37:18.935Z,4.57
2018-04-22T18:39:46.680Z,4.60
2018-04-22T18:42:13.385Z,3.87
2018-04-22T18:44:40.179Z,9.87
2018-04-22T18:47:06.790Z,5.53
2018-04-22T18:49:33.427Z,5.57
2018-04-22T18:52:00.014Z,7.77
2018-04-22T18:54:26.607Z,10.43
2018-04-22T18:56:53.324Z,10.83
2018-04-22T18:59:20.540Z,5.43
2018-04-22T19:01:49.286Z,3.80
2018-04-22T19:04:18.445Z,4.03
2018-04-22T19:06:47.924Z,4.30
2018-04-22T19:09:14.676Z,4.13
2018-04-22T19:11:41.324Z,5.10
2018-04-22T19:14:07.975Z,4.13
2018-04-22T19:16:35.417Z,4.03
2018-04-22T19:19:18.883Z,3.57
2018-04-22T19:21:46.027Z,3.37
2018-04-22T19:24:12.693Z,2.80
2018-04-22T19:26:39.419Z,3.30
2018-04-22T19:29:05.962Z,3.60
2018-04-22T19:31:33.264Z,3.70
2018-04-22T19:34:00.818Z,3.93
2018-04-22T19:36:27.371Z,3.70
2018-04-22T19:38:53.937Z,3.60
2018-04-22T19:41:20.570Z,3.50
2018-04-22T19:43:47.185Z,3.00
2018-04-22T19:46:13.715Z,3.07
2018-04-22T19:48:40.276Z,2.63
2018-04-22T19:51:08.091Z,2.90
2018-04-22T19:53:34.947Z,3.43
2018-04-22T19:56:01.685Z,3.07
2018-04-22T19:58:28.362Z,2.87
2018-04-22T20:00:55.022Z,3.23
2018-04-22T20:03:21.810Z,3.17
2018-04-22T20:05:48.459Z,3.33
2018-04-22T20:08:15.024Z,3.40
2018-04-22T20:10:41.890Z,3.50
2018-04-22T20:13:08.558Z,3.00
2018-04-22T20:15:35.288Z,3.20
2018-04-22T20:18:01.915Z,3.03
2018-04-22T20:20:29.492Z,3.10
2018-04-22T20:22:56.025Z,3.30
2018-04-22T20:25:22.728Z,3.90
2018-04-22T20:27:49.395Z,3.10
2018-04-22T20:30:21.982Z,3.70
2018-04-22T20:32:48.726Z,3.83
2018-04-22T20:35:15.297Z,4.23
2018-04-22T20:37:42.051Z,4.90
2018-04-22T20:40:12.154Z,4.67
2018-04-22T20:42:38.928Z,3.30
2018-04-22T20:45:05.641Z,3.17
2018-04-22T20:47:32.231Z,2.80
2018-04-22T20:50:02.760Z,3.20
2018-04-22T20:52:29.501Z,3.20
2018-04-22T20:54:56.130Z,2.90
2018-04-22T20:57:22.858Z,3.10
2018-04-22T20:59:49.717Z,3.23
2018-04-22T21:02:16.431Z,3.50
2018-04-22T21:04:43.067Z,3.10
2018-04-22T21:07:09.663Z,4.47
2018-04-22T21:09:36.461Z,4.17
2018-04-22T21:12:03.108Z,3.87
2018-04-22T21:14:29.804Z,4.00
2018-04-22T21:16:56.303Z,3.50
2018-04-22T21:19:26.176Z,4.20
2018-04-22T21:21:52.907Z,4.87
2018-04-22T21:24:19.603Z,4.10
2018-04-22T21:26:46.333Z,3.63
2018-04-22T21:29:12.984Z,3.83
2018-04-22T21:31:39.635Z,3.90
2018-04-22T21:34:06.437Z,3.80
2018-04-22T21:36:33.048Z,4.10
2018-04-22T21:38:59.823Z,4.83
2018-04-22T21:41:26.512Z,4.33
2018-04-22T21:43:53.197Z,4.23
2018-04-22T21:46:19.717Z,3.40
2018-04-22T21:48:46.497Z,3.70
2018-04-22T21:51:13.278Z,3.90
2018-04-22T21:53:39.922Z,3.17
2018-04-22T21:56:06.642Z,3.03
2018-04-22T21:58:33.281Z,3.43
2018-04-22T22:00:59.996Z,3.20
2018-04-22T22:03:26.613Z,3.40
2018-04-22T22:05:53.182Z,3.20
2018-04-22T22:08:19.829Z,3.17
2018-04-22T22:10:46.556Z,3.33
2018-04-22T22:13:13.448Z,3.00
2018-04-22T22:15:40.174Z,3.63
2018-04-22T22:18:06.909Z,3.40
2018-04-22T22:20:40.204Z,3.17
2018-04-22T22:23:07.056Z,3.23
2018-04-22T22:25:33.761Z,3.33
2018-04-22T22:28:00.287Z,3.13
2018-04-22T22:30:27.199Z,3.70
2018-04-22T22:32:53.822Z,3.17
2018-04-22T22:35:20.564Z,3.30
2018-04-22T22:37:47.056Z,3.33
2018-04-22T22:40:20.333Z,3.10
2018-04-22T22:42:46.949Z,3.53
2018-04-22T22:45:13.593Z,3.47
2018-04-22T22:47:40.169Z,3.70
2018-04-22T22:50:07.130Z,3.23
2018-04-22T22:52:33.841Z,3.50
2018-04-22T22:55:00.470Z,3.20
2018-04-22T22:57:27.189Z,3.60
2018-04-22T22:59:58.736Z,3.47
2018-04-22T23:02:25.450Z,3.53
2018-04-22T23:04:52.181Z,3.17
2018-04-22T23:07:18.866Z,2.97
2018-04-22T23:09:48.870Z,3.37
2018-04-22T23:12:15.612Z,3.20
2018-04-22T23:14:43.008Z,3.37
2018-04-22T23:17:09.645Z,2.90
2018-04-22T23:19:39.492Z,2.90
2018-04-22T23:22:06.135Z,3.03
2018-04-22T23:24:33.051Z,2.90
2018-04-22T23:26:59.727Z,3.17
2018-04-22T23:29:30.233Z,3.30
2018-04-22T23:31:56.825Z,3.07
2018-04-22T23:34:23.474Z,2.90
2018-04-22T23:36:50.216Z,2.87
2018-04-22T23:39:20.824Z,3.27
2018-04-22T23:41:47.914Z,2.90
2018-04-22T23:44:14.552Z,2.80
2018-04-22T23:46:41.290Z,2.70
2018-04-22T23:49:09.249Z,2.80
2018-04-22T23:51:35.972Z,3.10
2018-04-22T23:54:03.146Z,3.07
2018-04-22T23:56:29.801Z,3.23
2018-04-22T23:59:00.537Z,2.83
